Time;durP1;ratioP1;P1;durP2;ratioP2;P2;SDS_P1;SDS_P2;PMS_P1;PMS_P2;Temp;Humidity;BMP_temperature;BMP_pressure;BME280_temperature;BME280_humidity;BME280_pressure;Samples;Min_cycle;Max_cycle;Signal;HPM_P1;HPM_P2
2023/12/02 00:00:43;;;;;;;115.70;52.50;;;;;;;-4.58;91.01;99599.36;107373;281;113394;-53
2023/12/02 00:03:38;;;;;;;111.90;51.20;;;;;;;-4.58;91.09;99597.58;107183;281;155431;-54
2023/12/02 00:06:13;;;;;;;113.40;52.00;;;;;;;-4.57;91.12;99598.54;107379;281;96467;-53
2023/12/02 00:08:48;;;;;;;114.30;49.90;;;;;;;-4.55;91.25;99592.40;107333;281;121043;-54
2023/12/02 00:11:26;;;;;;;109.90;49.10;;;;;;;-4.55;91.25;99583.98;107190;281;156400;-53
2023/12/02 00:14:04;;;;;;;117.90;52.40;;;;;;;-4.52;91.36;99585.19;107365;281;114401;-57
2023/12/02 00:16:43;;;;;;;114.70;50.80;;;;;;;-4.54;91.21;99576.93;107208;281;155220;-58
2023/12/02 00:19:22;;;;;;;121.20;54.20;;;;;;;-4.55;91.25;99574.15;107388;281;97102;-54
2023/12/02 00:22:06;;;;;;;116.50;52.10;;;;;;;-4.55;91.29;99583.15;107175;281;155251;-54
2023/12/02 00:24:48;;;;;;;118.70;52.90;;;;;;;-4.54;91.19;99592.21;107353;281;104409;-57
2023/12/02 00:27:24;;;;;;;112.40;50.80;;;;;;;-4.55;91.20;99598.40;107182;281;156188;-57
2023/12/02 00:30:04;;;;;;;116.40;53.10;;;;;;;-4.55;91.18;99591.02;107389;281;92285;-52
2023/12/02 00:32:45;;;;;;;115.70;54.00;;;;;;;-4.56;91.15;99594.74;107382;281;96484;-52
2023/12/02 00:35:23;;;;;;;115.60;53.00;;;;;;;-4.55;91.14;99599.46;107245;281;154493;-55
2023/12/02 00:38:08;;;;;;;112.00;53.50;;;;;;;-4.56;91.26;99606.52;107365;281;105413;-55
2023/12/02 00:40:44;;;;;;;123.10;53.30;;;;;;;-4.56;91.23;99607.97;107196;281;155088;-53
2023/12/02 00:43:21;;;;;;;;;;;;;;;-4.52;91.22;99610.46;107362;281;95414;-52
2023/12/02 00:46:00;;;;;;;122.90;51.80;;;;;;;-4.47;91.19;99612.04;107178;282;141964;-55
2023/12/02 00:48:38;;;;;;;118.40;52.30;;;;;;;-4.48;91.29;99614.95;107351;281;120848;-53
2023/12/02 00:51:15;;;;;;;121.90;52.40;;;;;;;-4.47;91.19;99624.35;107198;281;155965;-53
2023/12/02 00:53:58;;;;;;;119.20;53.50;;;;;;;-4.45;91.25;99621.71;107396;281;114279;-53
2023/12/02 00:56:44;;;;;;;119.80;54.60;;;;;;;-4.41;91.37;99612.13;107363;281;93457;-52
2023/12/02 00:59:28;;;;;;;118.60;54.20;;;;;;;-4.37;91.39;99605.13;107224;281;155496;-55
2023/12/02 01:02:07;;;;;;;116.20;52.90;;;;;;;-4.35;91.39;99593.20;107350;281;121072;-55
2023/12/02 01:04:49;;;;;;;119.70;54.50;;;;;;;-4.35;91.29;99592.09;107222;281;155216;-55
2023/12/02 01:07:30;;;;;;;123.50;52.70;;;;;;;-4.32;91.35;99591.36;107339;281;113979;-55
2023/12/02 01:10:11;;;;;;;120.20;53.90;;;;;;;-4.30;91.40;99586.66;107101;282;156576;-53
2023/12/02 01:12:45;;;;;;;126.80;55.20;;;;;;;-4.28;91.45;99583.71;107346;281;98156;-53
2023/12/02 01:15:28;;;;;;;128.50;53.70;;;;;;;-4.24;91.50;99576.68;107270;281;155216;-55
2023/12/02 01:18:11;;;;;;;127.00;53.40;;;;;;;-4.23;91.46;99579.40;107379;281;105119;-56
2023/12/02 01:20:55;;;;;;;126.10;53.20;;;;;;;-4.21;91.54;99571.54;107351;281;115462;-52
2023/12/02 01:23:40;;;;;;;97.60;44.90;;;;;;;-4.21;91.64;99561.67;107170;281;156077;-53
2023/12/02 01:26:25;;;;;;;95.60;42.40;;;;;;;-4.19;91.62;99558.89;107377;281;97649;-55
2023/12/02 01:29:01;;;;;;;102.40;44.40;;;;;;;-4.12;91.68;99554.39;107231;281;155937;-54
2023/12/02 01:31:43;;;;;;;104.10;45.10;;;;;;;-4.10;91.67;99553.20;107378;281;105298;-54
2023/12/02 01:34:30;;;;;;;106.50;45.60;;;;;;;-4.06;91.66;99547.55;107235;281;154847;-52
2023/12/02 01:37:07;;;;;;;105.20;46.20;;;;;;;-4.05;91.71;99537.96;107313;281;93539;-52
2023/12/02 01:39:49;;;;;;;110.90;44.60;;;;;;;-4.00;91.51;99534.80;107262;281;154706;-57
2023/12/02 01:42:31;;;;;;;105.70;45.00;;;;;;;-4.03;91.53;99534.80;107361;281;121096;-57
2023/12/02 01:45:12;;;;;;;105.80;41.40;;;;;;;-4.03;91.49;99536.26;107371;281;105469;-54
2023/12/02 01:47:51;;;;;;;93.20;40.00;;;;;;;-4.06;91.56;99540.15;107297;281;114537;-53
2023/12/02 01:50:36;;;;;;;96.20;41.60;;;;;;;-4.05;91.65;99546.96;107402;281;95743;-57
2023/12/02 01:53:16;;;;;;;96.00;40.50;;;;;;;-4.06;91.59;99552.10;107195;281;155072;-57
2023/12/02 01:55:54;;;;;;;85.60;35.90;;;;;;;-4.05;91.61;99565.07;107456;281;120791;-55
2023/12/02 01:58:30;;;;;;;96.80;39.00;;;;;;;-4.03;91.59;99572.84;107277;281;156171;-57
2023/12/02 02:01:07;;;;;;;82.10;36.20;;;;;;;-4.00;91.72;99569.55;107331;281;114062;-58
2023/12/02 02:03:55;;;;;;;80.50;36.30;;;;;;;-3.95;91.62;99580.44;107204;281;156228;-58
2023/12/02 02:06:39;;;;;;;85.00;36.40;;;;;;;-3.91;91.46;99584.67;107334;281;96799;-58
2023/12/02 02:09:23;;;;;;;80.20;36.10;;;;;;;-3.89;91.48;99587.37;107194;281;157664;-52
2023/12/02 02:12:00;;;;;;;78.30;33.20;;;;;;;-3.87;91.43;99587.92;107324;281;104832;-52
2023/12/02 02:14:42;;;;;;;79.00;33.90;;;;;;;-3.85;91.37;99590.91;107376;281;114807;-55
2023/12/02 02:17:24;;;;;;;75.60;31.30;;;;;;;-3.88;91.36;99587.14;107214;281;154410;-55
2023/12/02 02:20:01;;;;;;;70.50;31.80;;;;;;;-3.86;91.31;99580.95;107415;281;98251;-58
2023/12/02 02:22:44;;;;;;;70.10;32.20;;;;;;;-3.87;91.34;99583.71;107221;281;154103;-57
2023/12/02 02:25:25;;;;;;;75.40;32.50;;;;;;;-3.91;91.34;99588.80;107375;281;105101;-56
2023/12/02 02:28:06;;;;;;;71.70;30.20;;;;;;;-3.93;91.40;99580.68;107183;281;155118;-55
2023/12/02 02:30:48;;;;;;;76.70;32.10;;;;;;;-3.93;91.25;99574.34;107392;281;96149;-57
2023/12/02 02:33:33;;;;;;;75.80;33.60;;;;;;;-3.96;91.29;99581.24;107249;281;157768;-53
2023/12/02 02:36:10;;;;;;;68.00;27.10;;;;;;;-3.95;91.34;99578.55;107349;281;119877;-55
2023/12/02 02:38:56;;;;;;;72.30;29.80;;;;;;;-3.98;91.41;99578.03;107408;281;104215;-54
2023/12/02 02:41:40;;;;;;;77.00;32.50;;;;;;;-4.02;91.60;99585.79;107205;281;155508;-54
2023/12/02 02:44:20;;;;;;;74.40;31.10;;;;;;;-3.96;91.52;99593.77;107353;281;95113;-55
2023/12/02 02:47:06;;;;;;;73.60;32.00;;;;;;;-4.00;91.54;99604.54;107234;281;155962;-54
2023/12/02 02:49:51;;;;;;;76.40;33.00;;;;;;;-3.95;91.63;99610.89;107308;281;121443;-58
2023/12/02 02:52:38;;;;;;;72.00;31.50;;;;;;;-3.90;91.51;99609.20;107192;281;154940;-58
2023/12/02 02:55:17;;;;;;;70.70;30.90;;;;;;;-3.88;91.28;99617.52;107339;281;114259;-56
2023/12/02 02:58:02;;;;;;;68.60;30.30;;;;;;;-3.91;91.33;99617.42;107231;281;155793;-54
2023/12/02 03:00:46;;;;;;;77.70;32.60;;;;;;;-3.97;91.34;99611.93;107311;273;97379;-54
2023/12/02 03:03:23;;;;;;;73.20;31.90;;;;;;;-3.98;91.41;99607.79;107209;281;154506;-54
2023/12/02 03:06:02;;;;;;;74.20;30.80;;;;;;;-4.03;91.45;99600.39;107289;281;105099;-53
2023/12/02 03:08:42;;;;;;;76.30;33.40;;;;;;;-4.06;91.36;99601.20;107315;281;113832;-55
2023/12/02 03:11:24;;;;;;;78.00;31.80;;;;;;;-4.07;91.54;99604.20;107105;281;157492;-54
2023/12/02 03:14:02;;;;;;;78.30;31.10;;;;;;;-4.01;91.38;99609.08;107403;281;98264;-59
2023/12/02 03:16:45;;;;;;;79.60;31.90;;;;;;;-4.02;91.30;99600.15;107164;281;156231;-57
2023/12/02 03:19:23;;;;;;;68.00;29.70;;;;;;;-4.01;91.34;99594.63;107326;281;106235;-57
2023/12/02 03:22:05;;;;;;;74.70;30.90;;;;;;;-3.98;91.32;99590.58;107113;281;155043;-57
2023/12/02 03:24:48;;;;;;;78.40;32.50;;;;;;;-3.97;91.42;99587.69;107288;277;91544;-57
2023/12/02 03:27:31;;;;;;;74.60;31.70;;;;;;;-3.98;91.33;99577.51;107097;282;155447;-57
2023/12/02 03:30:14;;;;;;;79.70;34.50;;;;;;;-4.01;91.34;99577.41;107367;281;121890;-55
2023/12/02 03:32:57;;;;;;;77.30;32.60;;;;;;;-4.03;91.27;99565.39;107426;281;105445;-55
2023/12/02 03:35:33;;;;;;;81.30;34.60;;;;;;;-4.04;91.37;99557.43;107101;281;155221;-52
2023/12/02 03:38:08;;;;;;;83.80;34.20;;;;;;;-4.03;91.43;99545.52;107368;281;95934;-52
2023/12/02 03:40:43;;;;;;;78.60;34.30;;;;;;;-3.99;91.39;99543.86;107218;281;155982;-57
2023/12/02 03:43:26;;;;;;;70.20;31.50;;;;;;;-3.98;91.37;99543.55;107347;281;119407;-56
2023/12/02 03:46:05;;;;;;;;;;;;;;;-3.95;91.24;99542.95;107207;281;156134;-54
2023/12/02 03:48:45;;;;;;;84.80;36.00;;;;;;;-3.91;91.29;99534.80;107375;281;115046;-54
2023/12/02 03:51:30;;;;;;;79.80;35.00;;;;;;;-3.90;91.23;99539.81;107222;281;155015;-55
2023/12/02 03:54:11;;;;;;;80.40;34.60;;;;;;;-3.89;91.40;99546.08;107379;281;98159;-52
2023/12/02 03:56:48;;;;;;;91.50;38.60;;;;;;;-3.88;91.47;99544.43;107348;281;121650;-53
2023/12/02 03:59:26;;;;;;;95.80;35.70;;;;;;;-3.85;91.55;99552.94;107221;281;154282;-58
2023/12/02 04:02:07;;;;;;;95.60;36.80;;;;;;;-3.86;91.44;99554.63;107366;281;114419;-58
2023/12/02 04:04:45;;;;;;;97.60;37.20;;;;;;;-3.86;91.43;99560.03;107250;279;155084;-55
2023/12/02 04:07:21;;;;;;;88.50;34.60;;;;;;;-3.84;91.52;99558.81;107369;281;97712;-55
2023/12/02 04:10:05;;;;;;;75.50;31.40;;;;;;;-3.80;91.41;99561.52;107209;281;178540;-55
2023/12/02 04:12:46;;;;;;;78.90;32.40;;;;;;;-3.74;91.34;99562.09;107312;282;105783;-55
2023/12/02 04:15:46;;;;;;;79.90;31.10;;;;;;;-3.72;91.26;99561.95;107204;282;155476;-58
2023/12/02 04:18:47;;;;;;;75.00;29.30;;;;;;;-3.77;91.29;99557.73;107358;281;95248;-59
2023/12/02 04:21:27;;;;;;;69.70;30.80;;;;;;;-3.77;91.35;99556.39;107250;282;154912;-53
2023/12/02 04:24:05;;;;;;;72.30;29.60;;;;;;;-3.73;91.35;99559.68;107360;281;120936;-54
2023/12/02 04:26:46;;;;;;;80.20;31.50;;;;;;;-3.66;91.27;99552.42;107390;281;103300;-54
2023/12/02 04:29:25;;;;;;;74.20;30.90;;;;;;;-3.63;91.30;99554.36;106600;282;868059;-55
2023/12/02 04:32:03;;;;;;;72.20;31.20;;;;;;;-3.60;91.34;99563.02;107317;281;92545;-56
2023/12/02 04:34:40;;;;;;;79.30;33.70;;;;;;;-3.60;91.43;99563.91;107236;281;154278;-56
2023/12/02 04:37:19;;;;;;;83.40;31.90;;;;;;;-3.58;91.49;99574.04;107362;281;119518;-56
2023/12/02 04:39:59;;;;;;;80.30;29.50;;;;;;;-3.62;91.63;99574.52;107234;281;155384;-54
2023/12/02 04:42:40;;;;;;;77.70;31.40;;;;;;;-3.64;91.51;99578.17;107390;281;114218;-56
2023/12/02 04:45:18;;;;;;;79.40;31.60;;;;;;;-3.66;91.56;99582.93;107262;281;155715;-57
2023/12/02 04:48:07;;;;;;;78.90;32.90;;;;;;;-3.63;91.60;99583.58;107385;281;97383;-58
2023/12/02 04:50:44;;;;;;;77.90;31.40;;;;;;;-3.64;91.61;99578.86;107361;281;120673;-53
2023/12/02 04:53:24;;;;;;;85.80;34.00;;;;;;;-3.64;91.57;99568.84;107212;281;155118;-53
2023/12/02 04:56:06;;;;;;;82.90;33.60;;;;;;;-3.67;91.54;99564.66;107370;281;114692;-54
2023/12/02 04:58:47;;;;;;;84.80;33.40;;;;;;;-3.62;91.59;99560.80;107230;281;155816;-56
2023/12/02 05:01:26;;;;;;;77.20;32.20;;;;;;;-3.58;91.53;99555.69;107425;281;97945;-56
2023/12/02 05:04:08;;;;;;;73.80;30.90;;;;;;;-3.57;91.55;99550.67;107231;281;154243;-58
2023/12/02 05:06:52;;;;;;;74.60;30.10;;;;;;;-3.58;91.57;99547.08;107375;281;104956;-58
2023/12/02 05:09:33;;;;;;;76.40;28.50;;;;;;;-3.59;91.53;99548.55;107188;281;155759;-58
2023/12/02 05:12:11;;;;;;;61.30;24.80;;;;;;;-3.63;91.54;99549.05;107275;281;94309;-58
2023/12/02 05:14:51;;;;;;;66.20;26.90;;;;;;;-3.68;91.58;99548.05;107386;281;97600;-58
2023/12/02 05:17:34;;;;;;;65.80;25.30;;;;;;;-3.67;91.64;99542.52;107168;281;155726;-58
2023/12/02 05:20:21;;;;;;;60.60;25.60;;;;;;;-3.66;91.60;99536.09;107381;281;105010;-55
2023/12/02 05:23:03;;;;;;;59.90;24.90;;;;;;;-3.63;91.54;99548.55;107238;281;154964;-56
2023/12/02 05:25:47;;;;;;;64.20;24.60;;;;;;;-3.61;91.61;99551.52;107324;281;94279;-56
2023/12/02 05:28:24;;;;;;;65.60;26.40;;;;;;;-3.55;91.64;99551.25;107167;281;154903;-58
2023/12/02 05:31:07;;;;;;;58.20;24.50;;;;;;;-3.51;91.56;99550.91;107347;281;119729;-53
2023/12/02 05:33:44;;;;;;;60.00;23.90;;;;;;;-3.50;91.55;99546.65;107266;281;156357;-56
2023/12/02 05:36:23;;;;;;;55.90;24.20;;;;;;;-3.49;91.51;99542.87;107351;281;113661;-58
2023/12/02 05:39:03;;;;;;;53.60;21.70;;;;;;;-3.49;91.46;99540.90;107359;281;96040;-53
2023/12/02 05:41:42;;;;;;;54.10;24.60;;;;;;;-3.49;91.48;99542.84;107185;282;155426;-53
2023/12/02 05:44:21;;;;;;;58.10;22.80;;;;;;;-3.46;91.47;99536.84;107376;281;121581;-53
2023/12/02 05:47:03;;;;;;;58.80;26.60;;;;;;;-3.42;91.39;99536.14;107244;282;155638;-53
2023/12/02 05:49:44;;;;;;;58.30;25.90;;;;;;;-3.51;91.52;99539.70;107354;281;114708;-53
2023/12/02 05:52:29;;;;;;;67.30;27.10;;;;;;;-3.49;91.62;99541.30;107250;282;154367;-53
2023/12/02 05:55:12;;;;;;;71.20;27.60;;;;;;;-3.45;91.44;99533.06;107387;282;97554;-55
2023/12/02 05:57:54;;;;;;;69.20;26.60;;;;;;;-3.45;91.40;99531.44;107235;282;155831;-56
2023/12/02 06:00:35;;;;;;;59.90;24.90;;;;;;;-3.45;91.41;99530.96;107338;281;106000;-55
2023/12/02 06:03:16;;;;;;;64.80;26.40;;;;;;;-3.47;91.46;99541.98;107334;282;114133;-55
2023/12/02 06:05:53;;;;;;;67.00;27.20;;;;;;;-3.50;91.52;99543.28;107306;281;94880;-54
2023/12/02 06:08:34;;;;;;;65.60;25.90;;;;;;;-3.50;91.61;99538.73;107382;281;95701;-54
2023/12/02 06:11:17;;;;;;;60.80;25.30;;;;;;;-3.49;91.52;99542.17;107153;282;155480;-52
2023/12/02 06:13:59;;;;;;;69.50;27.50;;;;;;;-3.47;91.41;99548.32;107394;282;105326;-53
2023/12/02 06:16:37;;;;;;;65.60;26.40;;;;;;;-3.45;91.57;99551.02;107125;282;155722;-53
2023/12/02 06:19:21;;;;;;;69.00;26.50;;;;;;;-3.43;91.74;99548.34;107259;282;94292;-58
2023/12/02 06:21:58;;;;;;;66.90;27.80;;;;;;;-3.43;91.66;99547.14;107148;282;156234;-59
2023/12/02 06:24:42;;;;;;;62.70;27.60;;;;;;;-3.41;91.69;99543.12;107294;282;121164;-55
2023/12/02 06:27:19;;;;;;;68.60;25.00;;;;;;;-3.37;91.76;99544.54;107287;282;105327;-54
2023/12/02 06:29:58;;;;;;;67.30;26.00;;;;;;;-3.33;91.75;99543.84;107193;283;113436;-57
2023/12/02 06:32:43;;;;;;;62.00;25.90;;;;;;;-3.30;91.63;99541.66;107258;282;93849;-56
2023/12/02 06:35:20;;;;;;;64.10;25.00;;;;;;;-3.24;91.51;99536.78;107144;282;154377;-57
2023/12/02 06:37:56;;;;;;;58.80;25.30;;;;;;;-3.22;91.45;99534.69;107283;282;120884;-58
2023/12/02 06:40:32;;;;;;;62.40;24.50;;;;;;;-3.26;91.44;99531.66;107168;282;154320;-54
2023/12/02 06:43:19;;;;;;;59.90;26.60;;;;;;;-3.26;91.43;99533.75;107232;282;113981;-53
2023/12/02 06:45:58;;;;;;;67.00;25.30;;;;;;;-3.27;91.46;99538.77;107113;282;155561;-56
2023/12/02 06:48:36;;;;;;;62.10;25.00;;;;;;;-3.24;91.49;99550.32;107143;282;98612;-53
2023/12/02 06:51:12;;;;;;;62.00;24.50;;;;;;;-3.25;91.43;99558.13;107299;282;122002;-53
2023/12/02 06:53:49;;;;;;;59.10;25.00;;;;;;;-3.29;91.49;99553.73;107056;282;155616;-59
2023/12/02 06:56:26;;;;;;;61.40;25.10;;;;;;;-3.24;91.42;99560.39;107251;282;114339;-58
2023/12/02 06:59:08;;;;;;;66.00;26.80;;;;;;;-3.20;91.33;99564.07;107139;282;155272;-54
2023/12/02 07:01:53;;;;;;;68.90;26.70;;;;;;;-3.17;91.35;99562.92;107317;282;98085;-54
2023/12/02 07:04:28;;;;;;;63.40;28.30;;;;;;;-3.21;91.37;99567.70;107134;282;154783;-56
2023/12/02 07:07:06;;;;;;;71.00;27.60;;;;;;;-3.17;91.55;99569.31;107239;282;105225;-55
2023/12/02 07:09:46;;;;;;;66.00;26.80;;;;;;;-3.11;91.50;99570.41;107130;282;155421;-55
2023/12/02 07:12:32;;;;;;;66.40;26.60;;;;;;;-3.06;91.49;99573.65;107290;282;95008;-56
2023/12/02 07:15:11;;;;;;;64.80;28.00;;;;;;;-2.99;91.40;99575.40;107314;282;96552;-53
2023/12/02 07:17:54;;;;;;;58.00;25.10;;;;;;;-2.97;91.44;99576.65;107088;282;155432;-53
2023/12/02 07:20:31;;;;;;;61.00;25.90;;;;;;;-2.96;91.32;99577.12;107388;281;105607;-54
2023/12/02 07:23:10;;;;;;;70.30;29.60;;;;;;;-2.91;91.24;99588.88;107158;281;155059;-54
2023/12/02 07:25:53;;;;;;;61.00;26.40;;;;;;;-2.89;91.32;99590.07;107329;281;95459;-53
2023/12/02 07:28:33;;;;;;;64.50;25.70;;;;;;;-2.90;91.33;99584.17;107172;281;155744;-54
2023/12/02 07:31:16;;;;;;;64.40;26.80;;;;;;;-2.88;91.35;99582.40;107325;281;119623;-54
2023/12/02 07:33:58;;;;;;;68.50;28.80;;;;;;;-2.86;91.43;99577.88;107193;281;155220;-55
2023/12/02 07:36:43;;;;;;;63.10;26.60;;;;;;;-2.92;91.48;99580.77;107167;282;114571;-56
2023/12/02 07:39:25;;;;;;;55.40;24.00;;;;;;;-2.89;91.39;99585.04;107355;281;95846;-59
2023/12/02 07:42:04;;;;;;;63.80;28.40;;;;;;;-2.84;91.33;99582.60;107284;281;97544;-57
2023/12/02 07:44:41;;;;;;;63.00;27.40;;;;;;;-2.81;91.31;99583.13;107365;281;119827;-55
2023/12/02 07:47:16;;;;;;;60.30;28.20;;;;;;;-2.84;91.30;99579.98;107156;282;156603;-55
2023/12/02 07:49:56;;;;;;;68.80;27.10;;;;;;;-2.86;91.33;99576.84;107334;281;114011;-52
2023/12/02 07:52:30;;;;;;;69.50;29.00;;;;;;;-2.82;91.49;99569.08;107149;281;155126;-53
2023/12/02 07:55:15;;;;;;;68.80;28.60;;;;;;;-2.76;91.47;99564.71;107345;281;98344;-57
2023/12/02 07:57:54;;;;;;;70.80;29.50;;;;;;;-2.74;91.42;99560.16;107202;281;154599;-57
2023/12/02 08:00:31;;;;;;;66.60;29.20;;;;;;;-2.74;91.46;99556.98;107348;281;106064;-53
2023/12/02 08:03:13;;;;;;;72.10;30.10;;;;;;;-2.75;91.62;99556.70;107337;281;113638;-53
2023/12/02 08:06:00;;;;;;;77.30;29.90;;;;;;;-2.77;91.64;99563.25;107230;281;94568;-51
2023/12/02 08:08:40;;;;;;;74.80;29.80;;;;;;;-2.75;91.64;99560.25;107357;281;97056;-56
2023/12/02 08:11:21;;;;;;;78.20;31.00;;;;;;;-2.71;91.62;99554.23;107163;281;154823;-57
2023/12/02 08:14:06;;;;;;;70.00;29.70;;;;;;;-2.65;91.61;99549.20;107388;281;104940;-57
2023/12/02 08:16:54;;;;;;;80.10;31.70;;;;;;;-2.62;91.70;99554.73;107109;281;156289;-58
2023/12/02 08:19:30;;;;;;;75.70;30.50;;;;;;;-2.57;91.68;99560.30;107249;282;94613;-51
2023/12/02 08:22:09;;;;;;;78.80;33.60;;;;;;;-2.47;91.56;99569.47;107122;282;156211;-54
2023/12/02 08:24:45;;;;;;;72.70;30.30;;;;;;;-2.41;91.56;99561.75;107296;281;120022;-55
2023/12/02 08:27:26;;;;;;;74.90;32.10;;;;;;;-2.34;91.71;99565.98;107389;281;104960;-54
2023/12/02 08:30:07;;;;;;;85.00;32.10;;;;;;;-2.26;91.69;99570.94;107269;281;114307;-56
2023/12/02 08:32:53;;;;;;;77.00;33.20;;;;;;;-2.31;91.52;99578.89;107301;281;92316;-56
2023/12/02 08:35:31;;;;;;;80.10;33.60;;;;;;;-2.25;91.49;99589.71;107237;281;154031;-57
2023/12/02 08:38:18;;;;;;;74.10;33.10;;;;;;;-2.19;91.29;99593.24;107352;281;120667;-56
2023/12/02 08:41:03;;;;;;;74.00;32.20;;;;;;;-2.22;91.23;99588.94;107163;281;153667;-57
2023/12/02 08:43:45;;;;;;;78.70;32.60;;;;;;;-2.22;91.33;99592.20;107279;282;113725;-56
2023/12/02 08:46:26;;;;;;;70.90;30.40;;;;;;;-2.24;91.34;99595.41;107145;281;155942;-56
2023/12/02 08:49:10;;;;;;;80.30;33.30;;;;;;;-2.28;91.40;99602.42;107260;281;97856;-52
2023/12/02 08:51:49;;;;;;;84.00;34.30;;;;;;;-2.28;91.60;99616.04;107164;281;154796;-52
2023/12/02 08:54:31;;;;;;;79.40;33.20;;;;;;;-2.22;91.51;99622.95;107413;281;105190;-55
2023/12/02 08:57:17;;;;;;;61.80;28.60;;;;;;;-2.17;91.47;99632.41;107375;281;114592;-54
2023/12/02 08:59:58;;;;;;;81.40;31.80;;;;;;;-2.09;91.33;99632.09;107238;282;154824;-57
2023/12/02 09:02:48;;;;;;;78.80;34.40;;;;;;;-1.98;91.24;99631.96;107352;281;97221;-57
2023/12/02 09:05:30;;;;;;;79.60;34.30;;;;;;;-2.00;91.07;99632.30;107256;281;154030;-50
2023/12/02 09:08:14;;;;;;;80.90;34.90;;;;;;;-1.94;91.13;99631.85;107452;281;104798;-53
2023/12/02 09:10:54;;;;;;;84.10;36.90;;;;;;;-1.93;91.13;99632.45;107243;281;154312;-53
2023/12/02 09:13:53;;;;;;;75.80;35.50;;;;;;;-1.90;91.01;99628.83;107484;281;94833;-53
2023/12/02 09:16:46;;;;;;;86.00;35.30;;;;;;;-1.94;90.93;99630.63;107216;281;154952;-54
2023/12/02 09:19:57;;;;;;;83.00;33.20;;;;;;;-1.96;90.94;99624.58;107346;281;120142;-51
2023/12/02 09:22:56;;;;;;;76.30;35.00;;;;;;;-1.94;91.11;99615.39;107244;281;156104;-52
2023/12/02 09:25:41;;;;;;;78.50;33.50;;;;;;;-1.93;91.20;99611.13;107361;281;113699;-53
2023/12/02 09:28:26;;;;;;;80.50;34.10;;;;;;;-1.88;91.32;99612.64;107230;281;156117;-53
2023/12/02 09:31:08;;;;;;;73.70;34.20;;;;;;;-1.84;91.21;99605.87;107206;282;97952;-52
2023/12/02 09:33:59;;;;;;;81.40;37.20;;;;;;;-1.79;91.17;99608.63;107225;282;156204;-52
2023/12/02 09:36:46;;;;;;;79.00;36.00;;;;;;;-1.75;90.95;99602.52;107372;282;105984;-53
2023/12/02 09:40:10;;;;;;;86.30;38.00;;;;;;;-1.69;90.77;99594.95;107291;282;114516;-53
2023/12/02 09:42:54;;;;;;;87.80;40.10;;;;;;;-1.53;90.77;99592.11;107360;281;92393;-52
2023/12/02 09:45:40;;;;;;;75.20;33.10;;;;;;;-1.49;90.77;99592.66;107360;281;97751;-54
2023/12/02 09:48:21;;;;;;;79.40;33.80;;;;;;;-1.49;90.72;99589.34;107305;282;120549;-54
2023/12/02 09:51:15;;;;;;;77.40;34.50;;;;;;;-1.48;90.61;99585.67;107381;282;104956;-57
2023/12/02 09:54:14;;;;;;;75.20;30.90;;;;;;;-1.50;90.65;99585.67;107135;282;154716;-54
2023/12/02 09:56:59;;;;;;;77.90;32.30;;;;;;;-1.47;90.74;99584.68;107291;281;95065;-52
2023/12/02 09:59:49;;;;;;;71.50;31.10;;;;;;;-1.40;90.78;99577.54;107104;281;155028;-53
2023/12/02 10:02:53;;;;;;;66.00;29.80;;;;;;;-1.38;90.78;99576.33;107335;281;119492;-52
2023/12/02 10:05:40;;;;;;;72.30;30.70;;;;;;;-1.29;90.72;99586.29;107133;281;155323;-54
2023/12/02 10:08:27;;;;;;;65.90;29.60;;;;;;;-1.36;90.61;99601.17;107377;281;114719;-54
2023/12/02 10:11:08;;;;;;;65.20;29.20;;;;;;;-1.41;90.64;99602.19;107207;281;153949;-55
2023/12/02 10:14:01;;;;;;;67.80;30.10;;;;;;;-1.32;90.57;99601.02;107382;281;98726;-51
2023/12/02 10:16:45;;;;;;;63.60;28.70;;;;;;;-1.24;90.51;99592.15;107186;281;155943;-51
2023/12/02 10:19:33;;;;;;;69.60;33.30;;;;;;;-1.15;90.45;99597.40;107328;281;105514;-55
2023/12/02 10:22:13;;;;;;;62.60;29.40;;;;;;;-1.14;90.52;99593.84;107157;281;155124;-54
2023/12/02 10:25:01;;;;;;;64.00;30.10;;;;;;;-1.14;90.26;99582.15;107290;282;95309;-57
2023/12/02 10:27:48;;;;;;;61.10;30.00;;;;;;;-1.14;90.23;99567.11;107316;281;97971;-54
2023/12/02 10:30:38;;;;;;;55.70;27.60;;;;;;;-1.13;90.10;99578.48;107379;281;120684;-52
2023/12/02 10:33:35;;;;;;;61.30;29.90;;;;;;;-1.11;89.92;99569.13;107393;281;105382;-51
2023/12/02 10:36:14;;;;;;;63.80;29.80;;;;;;;-1.16;89.93;99553.52;107248;281;116661;-56
2023/12/02 10:39:09;;;;;;;58.10;27.10;;;;;;;-1.22;89.95;99545.95;107345;281;94077;-55
2023/12/02 10:42:02;;;;;;;64.70;29.30;;;;;;;-1.35;89.90;99545.16;107208;281;154111;-56
2023/12/02 10:44:43;;;;;;;72.70;34.00;;;;;;;-1.28;89.87;99552.27;107332;281;120977;-56
2023/12/02 10:47:20;;;;;;;68.80;31.50;;;;;;;-1.27;90.00;99554.86;107202;282;155171;-55
2023/12/02 10:49:59;;;;;;;64.20;29.00;;;;;;;-1.26;90.10;99562.54;107372;281;114559;-56
2023/12/02 10:52:40;;;;;;;56.40;29.10;;;;;;;-1.28;90.07;99565.52;107109;281;155012;-56
2023/12/02 10:55:20;;;;;;;59.20;27.20;;;;;;;-1.27;89.92;99562.47;107241;281;98432;-53
2023/12/02 10:57:58;;;;;;;61.00;28.80;;;;;;;-1.32;89.85;99562.38;107201;281;155900;-54
2023/12/02 11:00:34;;;;;;;59.90;28.30;;;;;;;-1.31;89.87;99560.33;107160;281;108445;-55
2023/12/02 11:03:20;;;;;;;58.20;28.30;;;;;;;-1.36;89.96;99547.17;107376;281;114511;-51
2023/12/02 11:06:06;;;;;;;62.20;27.50;;;;;;;-1.35;89.88;99543.90;107205;281;154429;-52
2023/12/02 11:08:56;;;;;;;60.10;28.90;;;;;;;-1.39;89.98;99561.38;107365;281;98408;-52
2023/12/02 11:11:53;;;;;;;56.50;26.60;;;;;;;-1.28;89.94;99587.08;107194;281;155775;-51
2023/12/02 11:14:42;;;;;;;64.30;28.20;;;;;;;-1.24;89.89;99599.80;107341;281;105398;-52
2023/12/02 11:17:32;;;;;;;63.70;28.00;;;;;;;-1.26;89.81;99610.75;107222;281;155793;-52
2023/12/02 11:20:24;;;;;;;58.10;26.70;;;;;;;-1.27;89.90;99610.27;107353;281;94128;-51
2023/12/02 11:23:30;;;;;;;55.00;26.20;;;;;;;-1.23;89.86;99598.46;107213;281;154951;-51
2023/12/02 11:26:23;;;;;;;52.70;26.20;;;;;;;-1.20;89.79;99589.95;107274;281;120350;-56
2023/12/02 11:29:34;;;;;;;52.00;24.40;;;;;;;-1.15;89.59;99583.29;107199;281;155697;-54
2023/12/02 11:32:37;;;;;;;61.20;29.00;;;;;;;-1.16;89.51;99591.69;107368;281;114579;-54
2023/12/02 11:35:24;;;;;;;62.70;26.30;;;;;;;-1.22;89.62;99581.73;107204;281;154306;-56
2023/12/02 11:38:18;;;;;;;57.00;26.10;;;;;;;-1.23;89.52;99554.55;107387;281;97450;-57
2023/12/02 11:41:15;;;;;;;49.30;24.60;;;;;;;-1.25;89.52;99542.50;107208;281;155990;-56
2023/12/02 11:44:10;;;;;;;47.50;23.10;;;;;;;-1.31;89.52;99546.38;107366;281;105611;-54
2023/12/02 11:47:19;;;;;;;55.20;25.90;;;;;;;-1.30;89.62;99557.77;107173;281;154994;-54
2023/12/02 11:50:16;;;;;;;48.90;23.90;;;;;;;-1.21;89.54;99555.04;107326;281;96193;-55
2023/12/02 11:53:12;;;;;;;48.30;24.60;;;;;;;-1.28;89.70;99541.89;107236;281;154657;-55
2023/12/02 11:55:58;;;;;;;50.60;22.90;;;;;;;-1.24;89.71;99538.83;107361;281;120806;-54
2023/12/02 11:58:52;;;;;;;44.30;22.50;;;;;;;-1.22;89.57;99534.92;107228;281;154251;-54
2023/12/02 12:01:52;;;;;;;43.50;22.40;;;;;;;-1.28;89.51;99540.08;107345;281;114733;-53
2023/12/02 12:05:10;;;;;;;36.70;19.60;;;;;;;-1.34;89.55;99551.77;107206;281;155864;-56
2023/12/02 12:08:04;;;;;;;42.40;21.70;;;;;;;-1.44;89.71;99550.53;107319;281;96269;-57
2023/12/02 12:10:41;;;;;;;41.40;21.30;;;;;;;-1.46;89.71;99538.91;107228;281;155646;-57
2023/12/02 12:13:25;;;;;;;43.00;21.60;;;;;;;-1.45;89.68;99539.49;107322;281;105593;-57
2023/12/02 12:16:06;;;;;;;42.40;22.30;;;;;;;-1.48;89.72;99546.09;107171;281;155773;-53
2023/12/02 12:18:44;;;;;;;39.20;21.40;;;;;;;-1.47;89.62;99527.50;107347;281;95659;-53
2023/12/02 12:21:28;;;;;;;42.90;22.60;;;;;;;-1.47;89.63;99522.06;107332;281;97636;-52